createdAt,value
2018-12-02T00:00:20.114Z,6.63
2018-12-02T00:02:48.843Z,6.03
2018-12-02T00:05:17.539Z,7.07
2018-12-02T00:07:46.336Z,7.57
2018-12-02T00:10:15.941Z,6.77
2018-12-02T00:12:44.631Z,6.60
2018-12-02T00:15:19.458Z,5.97
2018-12-02T00:17:48.631Z,6.93
2018-12-02T00:20:17.332Z,5.73
2018-12-02T00:22:45.970Z,6.27
2018-12-02T00:25:15.558Z,5.93
2018-12-02T00:27:47.467Z,5.57
2018-12-02T00:30:17.987Z,6.43
2018-12-02T00:32:46.754Z,5.07
2018-12-02T00:35:16.389Z,4.90
2018-12-02T00:37:48.359Z,4.97
2018-12-02T00:40:18.226Z,5.00
2018-12-02T00:43:02.190Z,5.17
2018-12-02T00:45:33.933Z,6.20
2018-12-02T00:48:03.939Z,5.23
2018-12-02T00:50:32.623Z,5.33
2018-12-02T00:53:01.654Z,4.97
2018-12-02T00:55:36.771Z,5.10
2018-12-02T00:58:05.597Z,4.93
2018-12-02T01:00:34.312Z,4.87
2018-12-02T01:03:03.070Z,4.80
2018-12-02T01:05:31.686Z,4.77
2018-12-02T01:08:00.356Z,5.03
2018-12-02T01:10:29.023Z,4.70
2018-12-02T01:12:58.622Z,4.97
2018-12-02T01:15:28.254Z,4.57
2018-12-02T01:17:56.944Z,5.80
2018-12-02T01:20:25.683Z,4.43
2018-12-02T01:22:54.430Z,5.00
2018-12-02T01:25:23.089Z,3.80
2018-12-02T01:27:52.109Z,3.43
2018-12-02T01:30:25.321Z,4.57
2018-12-02T01:32:54.868Z,3.80
2018-12-02T01:35:23.633Z,3.37
2018-12-02T01:37:52.336Z,3.90
2018-12-02T01:40:21.706Z,3.30
2018-12-02T01:42:51.156Z,3.93
2018-12-02T01:45:23.815Z,4.20
2018-12-02T01:47:53.172Z,3.70
2018-12-02T01:50:22.813Z,3.63
2018-12-02T01:52:55.503Z,3.87
2018-12-02T01:55:24.154Z,3.37
2018-12-02T01:57:52.890Z,4.00
2018-12-02T02:00:23.522Z,3.37
2018-12-02T02:02:52.550Z,3.53
2018-12-02T02:05:22.043Z,3.90
2018-12-02T02:07:50.719Z,3.13
2018-12-02T02:10:20.619Z,3.00
2018-12-02T02:12:49.286Z,4.20
2018-12-02T02:15:18.159Z,3.83
2018-12-02T02:17:47.392Z,3.83
2018-12-02T02:20:20.049Z,4.17
2018-12-02T02:22:48.744Z,4.20
2018-12-02T02:25:18.480Z,4.33
2018-12-02T02:27:50.531Z,4.27
2018-12-02T02:30:20.268Z,4.13
2018-12-02T02:32:48.988Z,4.17
2018-12-02T02:35:18.870Z,4.50
2018-12-02T02:37:47.727Z,4.37
2018-12-02T02:40:21.312Z,4.00
2018-12-02T02:42:50.135Z,4.33
2018-12-02T02:45:18.837Z,4.83
2018-12-02T02:47:47.584Z,5.70
2018-12-02T02:50:18.248Z,4.60
2018-12-02T02:52:48.908Z,4.80
2018-12-02T02:55:17.608Z,5.30
2018-12-02T02:57:46.288Z,5.40
2018-12-02T03:00:19.115Z,5.90
2018-12-02T03:02:47.855Z,6.33
2018-12-02T03:05:17.202Z,6.50
2018-12-02T03:07:46.025Z,7.93
2018-12-02T03:10:17.655Z,7.03
2018-12-02T03:12:47.246Z,7.13
2018-12-02T03:15:16.743Z,8.67
2018-12-02T03:17:45.522Z,8.30
2018-12-02T03:20:17.012Z,8.67
2018-12-02T03:22:46.656Z,9.10
2018-12-02T03:25:17.423Z,8.90
2018-12-02T03:27:46.105Z,9.23
2018-12-02T03:30:17.854Z,9.13
2018-12-02T03:32:46.572Z,9.60
2018-12-02T03:35:17.395Z,10.07
2018-12-02T03:37:46.223Z,10.47
2018-12-02T03:40:16.836Z,10.40
2018-12-02T03:42:45.555Z,11.07
2018-12-02T03:45:17.119Z,10.53
2018-12-02T03:47:45.918Z,11.03
2018-12-02T03:50:17.707Z,10.83
2018-12-02T03:52:44.390Z,11.90
2018-12-02T03:55:13.129Z,12.07
2018-12-02T03:57:41.784Z,10.77
2018-12-02T04:00:20.329Z,11.03
2018-12-02T04:02:49.224Z,11.70
2018-12-02T04:05:18.938Z,11.93
2018-12-02T04:07:47.616Z,13.20
2018-12-02T04:10:17.192Z,11.97
2018-12-02T04:12:46.671Z,11.43
2018-12-02T04:15:16.168Z,11.73
2018-12-02T04:17:45.722Z,10.23
2018-12-02T04:20:18.305Z,11.20
2018-12-02T04:22:48.672Z,11.60
2018-12-02T04:25:19.422Z,11.30
2018-12-02T04:27:48.157Z,11.93
2018-12-02T04:30:19.596Z,11.27
2018-12-02T04:32:50.131Z,11.07
2018-12-02T04:35:26.342Z,11.20
2018-12-02T04:37:55.090Z,10.97
2018-12-02T04:40:23.915Z,10.23
2018-12-02T04:42:52.555Z,11.13
2018-12-02T04:45:21.324Z,10.00
2018-12-02T04:47:50.251Z,10.87
2018-12-02T04:50:25.420Z,10.50
2018-12-02T04:52:54.176Z,11.97
2018-12-02T04:55:22.877Z,10.33
2018-12-02T04:57:51.567Z,11.20
2018-12-02T05:00:20.857Z,10.90
2018-12-02T05:02:51.485Z,10.97
2018-12-02T05:05:24.035Z,10.87
2018-12-02T05:07:53.024Z,10.17
2018-12-02T05:10:22.029Z,10.93
2018-12-02T05:12:51.156Z,11.00
2018-12-02T05:15:20.860Z,10.47
2018-12-02T05:17:49.561Z,9.67
2018-12-02T05:20:19.042Z,10.30
2018-12-02T05:22:47.808Z,10.43
2018-12-02T05:25:18.382Z,10.50
2018-12-02T05:27:46.004Z,10.60
2018-12-02T05:30:15.788Z,9.63
2018-12-02T05:32:45.140Z,11.20
2018-12-02T05:35:14.217Z,10.70
2018-12-02T05:37:42.953Z,10.73
2018-12-02T05:40:16.699Z,10.53
2018-12-02T05:42:45.396Z,11.93
2018-12-02T05:45:15.809Z,11.23
2018-12-02T05:47:44.560Z,10.70
2018-12-02T05:50:14.272Z,11.40
2018-12-02T05:52:43.087Z,11.60
2018-12-02T05:55:14.061Z,12.60
2018-12-02T05:57:42.925Z,12.90
2018-12-02T06:00:16.774Z,13.60
2018-12-02T06:02:45.482Z,12.77
2018-12-02T06:05:14.198Z,14.00
2018-12-02T06:07:42.857Z,13.57
2018-12-02T06:10:19.171Z,12.93
2018-12-02T06:12:47.866Z,11.63
2018-12-02T06:15:18.488Z,12.30
2018-12-02T06:17:47.469Z,12.07
2018-12-02T06:20:27.037Z,13.00
2018-12-02T06:22:56.691Z,13.53
2018-12-02T06:25:25.508Z,14.77
2018-12-02T06:27:54.369Z,13.87
2018-12-02T06:30:27.932Z,15.60
2018-12-02T06:32:59.749Z,15.77
2018-12-02T06:35:28.604Z,14.93
2018-12-02T06:37:58.249Z,14.60
2018-12-02T06:40:28.041Z,14.10
2018-12-02T06:42:56.768Z,13.50
2018-12-02T06:45:25.478Z,14.30
2018-12-02T06:47:54.147Z,14.23
2018-12-02T06:50:26.756Z,13.40
2018-12-02T06:52:56.377Z,14.73
2018-12-02T06:56:00.385Z,13.43
2018-12-02T07:00:48.833Z,12.40
2018-12-02T07:03:33.526Z,13.20
2018-12-02T07:06:02.261Z,13.77
2018-12-02T07:08:30.958Z,14.50
2018-12-02T07:10:59.665Z,14.60
2018-12-02T07:13:28.285Z,15.30
2018-12-02T07:15:57.066Z,15.43
2018-12-02T07:18:29.967Z,16.47
2018-12-02T07:21:01.653Z,15.20
2018-12-02T07:23:32.421Z,16.87
2018-12-02T07:26:03.171Z,16.97
2018-12-02T07:28:31.811Z,16.50
2018-12-02T07:31:00.457Z,16.83
2018-12-02T07:33:29.114Z,17.90
2018-12-02T07:35:57.805Z,17.90
2018-12-02T07:38:34.180Z,17.70
2018-12-02T07:41:04.402Z,20.93
2018-12-02T07:43:33.073Z,18.67
2018-12-02T07:46:01.777Z,18.03
2018-12-02T07:48:30.435Z,17.53
2018-12-02T07:50:59.113Z,16.50
2018-12-02T07:53:27.876Z,17.90
2018-12-02T07:55:56.535Z,15.40
2018-12-02T07:58:25.212Z,16.70
2018-12-02T08:00:53.914Z,15.70
2018-12-02T08:03:22.591Z,14.83
2018-12-02T08:05:51.540Z,15.03
2018-12-02T08:08:20.210Z,13.10
2018-12-02T08:10:48.897Z,12.77
2018-12-02T08:13:17.668Z,11.93
2018-12-02T08:15:46.343Z,11.80
2018-12-02T08:18:14.952Z,11.60
2018-12-02T08:20:43.646Z,11.10
2018-12-02T08:23:12.370Z,10.80
2018-12-02T08:25:41.038Z,10.60
2018-12-02T08:28:09.874Z,9.90
2018-12-02T08:30:38.560Z,10.87
2018-12-02T08:33:07.305Z,10.83
2018-12-02T08:35:36.009Z,10.97
2018-12-02T08:38:09.830Z,10.93
2018-12-02T08:40:38.513Z,11.30
2018-12-02T08:43:08.244Z,10.80
2018-12-02T08:45:38.005Z,11.53
2018-12-02T08:48:05.729Z,10.97
2018-12-02T08:50:34.399Z,11.90
2018-12-02T08:53:03.105Z,12.27
2018-12-02T08:55:31.852Z,12.90
2018-12-02T08:58:00.541Z,12.23
2018-12-02T09:00:29.223Z,11.90
2018-12-02T09:02:59.281Z,14.37
2018-12-02T09:05:28.029Z,11.00
2018-12-02T09:07:58.328Z,13.20
2018-12-02T09:10:27.991Z,13.87
2018-12-02T09:13:00.820Z,14.33
2018-12-02T09:15:29.528Z,14.03
2018-12-02T09:17:58.152Z,13.50
2018-12-02T09:20:29.219Z,13.10
2018-12-02T09:22:57.921Z,14.63
2018-12-02T09:25:26.565Z,14.37
2018-12-02T09:27:55.433Z,15.50
2018-12-02T09:30:28.161Z,16.60
2018-12-02T09:32:56.874Z,16.67
2018-12-02T09:35:25.548Z,16.70
2018-12-02T09:37:54.283Z,16.53
2018-12-02T09:40:22.941Z,16.73
2018-12-02T09:42:52.930Z,16.93
2018-12-02T09:45:22.847Z,18.40
2018-12-02T09:47:51.511Z,17.80
2018-12-02T09:50:20.351Z,18.30
2018-12-02T09:52:49.054Z,19.17
2018-12-02T09:55:32.787Z,20.23
2018-12-02T09:58:01.514Z,19.67
2018-12-02T10:00:34.057Z,18.97
2018-12-02T10:02:59.130Z,20.10
2018-12-02T10:05:27.755Z,20.67
2018-12-02T10:07:56.421Z,17.87
2018-12-02T10:10:25.223Z,18.53
2018-12-02T10:12:56.257Z,16.97
2018-12-02T10:15:24.989Z,15.90
2018-12-02T10:17:53.696Z,14.50
2018-12-02T10:20:22.395Z,14.83
2018-12-02T10:22:51.080Z,13.47
2018-12-02T10:25:20.153Z,11.70
2018-12-02T10:27:48.868Z,12.60
2018-12-02T10:30:20.632Z,10.73
2018-12-02T10:32:49.587Z,8.77
2018-12-02T10:35:18.397Z,9.63
2018-12-02T10:37:47.331Z,10.50
2018-12-02T10:40:16.902Z,10.87
2018-12-02T10:42:45.980Z,10.40
2018-12-02T10:45:16.543Z,9.83
2018-12-02T10:47:45.222Z,9.40
2018-12-02T10:50:15.295Z,8.57
2018-12-02T10:52:43.968Z,9.00
2018-12-02T10:55:17.858Z,9.30
2018-12-02T10:57:46.562Z,10.73
2018-12-02T11:00:16.556Z,9.67
2018-12-02T11:02:47.159Z,10.23
2018-12-02T11:05:16.012Z,9.83
2018-12-02T11:07:44.679Z,10.40
2018-12-02T11:10:13.975Z,9.00
2018-12-02T11:12:42.668Z,8.37
2018-12-02T11:15:13.043Z,8.60
2018-12-02T11:17:41.793Z,7.57
2018-12-02T11:20:13.758Z,7.77
2018-12-02T11:22:42.470Z,6.87
2018-12-02T11:25:12.330Z,7.70
2018-12-02T11:27:40.980Z,6.93
2018-12-02T11:30:12.871Z,7.23
2018-12-02T11:32:41.759Z,8.50
2018-12-02T11:35:12.785Z,7.13
2018-12-02T11:37:41.497Z,7.80
2018-12-02T11:40:17.945Z,6.83
2018-12-02T11:42:46.796Z,6.60
2018-12-02T11:45:15.893Z,6.37
2018-12-02T11:47:45.669Z,5.67
2018-12-02T11:50:17.032Z,6.30
2018-12-02T11:52:45.750Z,8.17
2018-12-02T11:55:15.423Z,9.13
2018-12-02T11:57:44.143Z,8.60
2018-12-02T12:00:19.914Z,9.57
2018-12-02T12:02:48.571Z,12.87
2018-12-02T12:05:17.239Z,22.27
2018-12-02T12:07:46.943Z,9.23
2018-12-02T12:10:20.580Z,12.27
2018-12-02T12:12:50.240Z,12.53
2018-12-02T12:15:23.719Z,11.33
2018-12-02T12:17:52.638Z,12.77
2018-12-02T12:20:23.451Z,10.13
2018-12-02T12:22:52.308Z,16.47
2018-12-02T12:25:21.027Z,8.83
2018-12-02T12:27:50.438Z,7.37
2018-12-02T12:30:28.006Z,12.90
2018-12-02T12:32:56.690Z,11.53
2018-12-02T12:35:25.639Z,12.43
2018-12-02T12:37:54.432Z,9.10
2018-12-02T12:40:30.953Z,18.40
2018-12-02T12:43:34.415Z,14.20
2018-12-02T12:46:03.423Z,13.37
2018-12-02T12:48:32.121Z,9.60
2018-12-02T12:51:00.845Z,24.13
2018-12-02T12:53:29.522Z,38.43
2018-12-02T12:55:58.213Z,20.20
2018-12-02T12:58:26.938Z,48.30
2018-12-02T13:00:55.608Z,21.50
2018-12-02T13:03:24.328Z,15.00
2018-12-02T13:05:52.988Z,10.90
2018-12-02T13:08:21.714Z,10.70
2018-12-02T13:10:50.386Z,8.40
2018-12-02T13:13:19.013Z,9.13
2018-12-02T13:15:47.751Z,9.30
2018-12-02T13:18:16.404Z,8.77
2018-12-02T13:20:51.607Z,10.50
2018-12-02T13:23:20.307Z,10.37
2018-12-02T13:25:49.007Z,10.70
2018-12-02T13:28:17.882Z,9.97
2018-12-02T13:30:46.583Z,11.60
2018-12-02T13:33:15.703Z,10.70
2018-12-02T13:35:44.455Z,12.07
2018-12-02T13:38:13.095Z,12.83
2018-12-02T13:40:42.667Z,12.80
2018-12-02T13:43:21.606Z,13.30
2018-12-02T13:45:50.927Z,15.60
2018-12-02T13:48:19.640Z,13.47
2018-12-02T13:50:48.313Z,15.80
2018-12-02T13:53:17.031Z,14.77
2018-12-02T13:55:45.631Z,15.67
2018-12-02T13:58:14.394Z,15.63
2018-12-02T14:00:43.562Z,16.73
2018-12-02T14:03:13.468Z,16.43
2018-12-02T14:05:43.167Z,15.00
2018-12-02T14:08:11.909Z,15.50
2018-12-02T14:10:40.629Z,14.40
2018-12-02T14:13:12.034Z,13.27
2018-12-02T14:15:56.052Z,15.50
2018-12-02T14:18:29.168Z,13.30
2018-12-02T14:20:57.827Z,11.30
2018-12-02T14:23:26.481Z,13.13
2018-12-02T14:25:56.896Z,10.87
2018-12-02T14:28:30.695Z,9.57
2018-12-02T14:30:59.523Z,9.67
2018-12-02T14:33:28.231Z,8.17
2018-12-02T14:35:56.918Z,8.50
2018-12-02T14:38:25.574Z,9.77
2018-12-02T14:40:54.208Z,8.17
2018-12-02T14:43:23.055Z,8.87
2018-12-02T14:45:51.708Z,9.40
2018-12-02T14:48:20.397Z,10.30
2018-12-02T14:50:49.176Z,9.00
2018-12-02T14:53:17.791Z,10.93
2018-12-02T14:55:46.503Z,13.77
2018-12-02T14:58:15.224Z,9.93
2018-12-02T15:00:43.884Z,10.27
2018-12-02T15:03:12.564Z,12.47
2018-12-02T15:05:41.378Z,10.17
2018-12-02T15:08:10.184Z,9.20
2018-12-02T15:10:38.915Z,11.43
2018-12-02T15:13:07.590Z,11.20
2018-12-02T15:15:36.249Z,13.50
2018-12-02T15:18:05.058Z,13.57
2018-12-02T15:20:33.734Z,11.80
2018-12-02T15:23:02.367Z,10.50
2018-12-02T15:25:31.053Z,10.30
2018-12-02T15:27:59.724Z,8.40
2018-12-02T15:30:28.411Z,9.27
2018-12-02T15:32:57.047Z,8.40
2018-12-02T15:35:25.790Z,9.57
2018-12-02T15:37:54.579Z,8.23
2018-12-02T15:40:23.248Z,7.70
2018-12-02T15:42:52.934Z,8.13
2018-12-02T15:45:22.612Z,6.93
2018-12-02T15:47:51.259Z,5.70
2018-12-02T15:50:22.091Z,6.07
2018-12-02T15:52:51.058Z,6.73
2018-12-02T15:55:26.343Z,5.37
2018-12-02T15:57:55.216Z,6.43
2018-12-02T16:00:26.046Z,5.73
2018-12-02T16:02:54.715Z,7.20
2018-12-02T16:05:23.478Z,6.27
2018-12-02T16:07:52.116Z,7.10
2018-12-02T16:10:20.849Z,7.33
2018-12-02T16:12:50.728Z,7.00
2018-12-02T16:15:21.625Z,7.03
2018-12-02T16:17:51.064Z,6.63
2018-12-02T16:20:25.894Z,6.60
2018-12-02T16:22:54.641Z,7.27
2018-12-02T16:25:23.359Z,8.53
2018-12-02T16:27:52.383Z,8.20
2018-12-02T16:30:21.353Z,7.00
2018-12-02T16:32:51.124Z,8.20
2018-12-02T16:35:20.010Z,8.67
2018-12-02T16:37:49.974Z,9.50
2018-12-02T16:40:20.698Z,17.30
2018-12-02T16:42:49.402Z,19.50
2018-12-02T16:45:18.872Z,24.30
2018-12-02T16:47:48.786Z,11.50
2018-12-02T16:50:23.920Z,8.23
2018-12-02T16:52:53.759Z,8.10
2018-12-02T16:55:25.324Z,7.60
2018-12-02T16:58:00.333Z,7.53
2018-12-02T17:00:39.171Z,7.60
2018-12-02T17:03:07.984Z,8.40
2018-12-02T17:05:36.667Z,7.70
2018-12-02T17:08:05.510Z,8.20
2018-12-02T17:10:34.209Z,8.83
2018-12-02T17:13:02.976Z,8.60
2018-12-02T17:15:31.664Z,8.80
2018-12-02T17:18:00.313Z,9.60
2018-12-02T17:20:29.047Z,8.67
2018-12-02T17:22:57.750Z,9.30
2018-12-02T17:25:26.395Z,8.40
2018-12-02T17:27:55.128Z,9.97
2018-12-02T17:30:34.375Z,7.07
2018-12-02T17:33:03.034Z,7.60
2018-12-02T17:35:31.724Z,7.57
2018-12-02T17:38:00.404Z,6.50
2018-12-02T17:40:29.100Z,6.43
2018-12-02T17:42:57.739Z,7.33
2018-12-02T17:45:26.397Z,6.90
2018-12-02T17:47:55.068Z,6.43
2018-12-02T17:50:23.702Z,5.70
2018-12-02T17:52:52.387Z,6.20
2018-12-02T17:55:21.006Z,5.80
2018-12-02T17:57:49.710Z,5.80
2018-12-02T18:00:21.023Z,5.57
2018-12-02T18:02:49.662Z,6.27
2018-12-02T18:05:20.384Z,6.00
2018-12-02T18:07:49.030Z,6.00
2018-12-02T18:10:17.747Z,6.57
2018-12-02T18:12:46.463Z,5.50
2018-12-02T18:15:16.084Z,5.63
2018-12-02T18:17:44.824Z,6.77
2018-12-02T18:20:17.394Z,6.33
2018-12-02T18:22:46.472Z,6.27
2018-12-02T18:25:16.176Z,6.10
2018-12-02T18:27:44.956Z,6.20
2018-12-02T18:30:19.702Z,5.87
2018-12-02T18:32:49.580Z,6.03
2018-12-02T18:35:24.270Z,6.30
2018-12-02T18:37:54.555Z,5.53
2018-12-02T18:40:23.244Z,6.47
2018-12-02T18:42:51.945Z,5.80
2018-12-02T18:45:20.572Z,5.63
2018-12-02T18:47:49.299Z,6.00
2018-12-02T18:50:18.057Z,6.10
2018-12-02T18:52:46.671Z,4.90
2018-12-02T18:55:15.332Z,5.77
2018-12-02T18:57:43.962Z,6.43
2018-12-02T19:00:19.079Z,6.50
2018-12-02T19:02:48.679Z,5.00
2018-12-02T19:05:17.317Z,5.53
2018-12-02T19:07:46.037Z,4.97
2018-12-02T19:10:17.396Z,4.70
2018-12-02T19:12:46.111Z,4.33
2018-12-02T19:15:15.644Z,3.57
2018-12-02T19:17:44.893Z,4.10
2018-12-02T19:20:17.995Z,3.50
2018-12-02T19:22:47.655Z,3.57
2018-12-02T19:25:18.285Z,3.67
2018-12-02T19:27:46.968Z,4.73
2018-12-02T19:30:16.450Z,4.20
2018-12-02T19:32:45.745Z,3.77
2018-12-02T19:35:17.024Z,3.70
2018-12-02T19:37:46.980Z,3.70
2018-12-02T19:40:16.368Z,3.80
2018-12-02T19:42:45.036Z,3.40
2018-12-02T19:45:18.084Z,4.40
2018-12-02T19:47:46.719Z,4.67
2018-12-02T19:50:16.717Z,5.30
2018-12-02T19:52:45.501Z,4.97
2018-12-02T19:55:14.337Z,5.93
2018-12-02T19:57:45.291Z,5.73
2018-12-02T20:00:21.289Z,7.30
2018-12-02T20:02:50.037Z,6.73
2018-12-02T20:05:18.791Z,7.80
2018-12-02T20:07:49.484Z,6.73
2018-12-02T20:10:19.568Z,7.57
2018-12-02T20:12:48.328Z,7.67
2018-12-02T20:15:17.598Z,8.00
2018-12-02T20:17:46.539Z,8.33
2018-12-02T20:20:22.580Z,8.50
2018-12-02T20:22:51.671Z,9.13
2018-12-02T20:25:21.563Z,8.50
2018-12-02T20:27:51.624Z,9.37
2018-12-02T20:30:21.279Z,9.80
2018-12-02T20:32:49.940Z,9.17
2018-12-02T20:35:18.787Z,10.30
2018-12-02T20:37:47.462Z,9.80
2018-12-02T20:40:18.268Z,9.23
2018-12-02T20:42:47.590Z,10.37
2018-12-02T20:45:17.016Z,10.67
2018-12-02T20:47:45.679Z,11.27
2018-12-02T20:50:16.394Z,9.50
2018-12-02T20:52:45.369Z,10.90
2018-12-02T20:55:19.140Z,11.07
2018-12-02T20:57:48.196Z,11.87
2018-12-02T21:00:19.742Z,11.60
2018-12-02T21:02:53.341Z,10.63
2018-12-02T21:05:44.301Z,11.53
2018-12-02T21:08:13.011Z,11.47
2018-12-02T21:10:41.689Z,11.53
2018-12-02T21:13:10.464Z,12.20
2018-12-02T21:15:39.193Z,13.30
2018-12-02T21:18:07.859Z,12.53
2018-12-02T21:20:36.542Z,13.00
2018-12-02T21:23:05.338Z,11.83
2018-12-02T21:25:34.180Z,12.33
2018-12-02T21:28:02.910Z,12.60
2018-12-02T21:30:31.618Z,13.70
2018-12-02T21:33:00.289Z,12.93
2018-12-02T21:35:28.953Z,13.80
2018-12-02T21:37:57.639Z,12.93
2018-12-02T21:40:26.285Z,13.43
2018-12-02T21:42:54.959Z,12.83
2018-12-02T21:45:23.695Z,13.97
2018-12-02T21:47:53.785Z,13.30
2018-12-02T21:50:25.673Z,12.37
2018-12-02T21:52:54.787Z,12.90
2018-12-02T21:55:23.503Z,12.70
2018-12-02T21:57:52.171Z,12.80
2018-12-02T22:00:26.234Z,13.37
2018-12-02T22:02:55.078Z,13.50
2018-12-02T22:05:23.780Z,12.60
2018-12-02T22:07:52.789Z,12.00
2018-12-02T22:10:27.067Z,12.67
2018-12-02T22:12:55.695Z,10.60
2018-12-02T22:15:24.572Z,11.97
2018-12-02T22:17:53.397Z,11.47
2018-12-02T22:20:22.075Z,13.07
2018-12-02T22:22:50.788Z,13.00
2018-12-02T22:25:21.652Z,14.40
2018-12-02T22:27:54.416Z,13.77
2018-12-02T22:30:24.183Z,14.47
2018-12-02T22:32:53.020Z,17.00
2018-12-02T22:35:21.806Z,17.17
2018-12-02T22:37:50.556Z,17.40
2018-12-02T22:40:20.265Z,17.93
2018-12-02T22:42:48.980Z,20.07
2018-12-02T22:45:19.937Z,18.50
2018-12-02T22:47:48.652Z,20.77
2018-12-02T22:50:18.253Z,22.10
2018-12-02T22:52:49.119Z,21.70
2018-12-02T22:55:17.918Z,22.90
2018-12-02T22:57:46.647Z,20.87
2018-12-02T23:00:20.190Z,22.37
2018-12-02T23:02:56.001Z,22.90
2018-12-02T23:05:24.752Z,23.73
2018-12-02T23:07:53.446Z,23.30
2018-12-02T23:10:22.211Z,21.70
2018-12-02T23:12:50.910Z,21.33
2018-12-02T23:15:19.663Z,22.70
2018-12-02T23:17:48.411Z,22.93
2018-12-02T23:20:17.102Z,23.27
2018-12-02T23:22:45.923Z,22.37
2018-12-02T23:25:15.211Z,21.00
2018-12-02T23:27:43.958Z,19.43
2018-12-02T23:30:20.310Z,21.27
2018-12-02T23:32:49.083Z,22.23
2018-12-02T23:35:17.834Z,19.53
2018-12-02T23:37:46.531Z,20.70
2018-12-02T23:40:17.120Z,19.97
2018-12-02T23:42:45.926Z,18.17
2018-12-02T23:45:15.237Z,18.67
2018-12-02T23:47:43.983Z,19.67
2018-12-02T23:50:18.823Z,17.83
2018-12-02T23:52:47.648Z,20.60
2018-12-02T23:55:17.384Z,17.47
2018-12-02T23:57:46.281Z,21.23
